Time;durP1;ratioP1;P1;durP2;ratioP2;P2;SDS_P1;SDS_P2;PMS_P1;PMS_P2;Temp;Humidity;BMP_temperature;BMP_pressure;BME280_temperature;BME280_humidity;BME280_pressure;Samples;Min_cycle;Max_cycle;Signal;HPM_P1;HPM_P2
2023/07/09 00:02:15;;;;;;;14.95;13.45;;;21.30;99.90;;;;;;4955622;28;90355;-35
2023/07/09 00:04:41;;;;;;;14.32;12.93;;;21.30;99.90;;;;;;4958640;28;89561;-33
2023/07/09 00:07:17;;;;;;;14.02;12.55;;;21.30;99.90;;;;;;4958764;28;87571;-36
2023/07/09 00:09:42;;;;;;;13.23;10.75;;;21.20;99.90;;;;;;4958749;28;89605;-38
2023/07/09 00:12:14;;;;;;;13.27;12.02;;;21.10;99.90;;;;;;4958339;28;90277;-33
2023/07/09 00:14:40;;;;;;;14.20;12.85;;;21.20;99.90;;;;;;4957867;28;89152;-34
2023/07/09 00:17:30;;;;;;;12.73;11.70;;;21.10;99.90;;;;;;4959343;28;87651;-35
2023/07/09 00:19:56;;;;;;;14.40;13.07;;;21.00;99.90;;;;;;4957862;28;89377;-40
2023/07/09 00:22:22;;;;;;;13.48;12.20;;;21.00;99.90;;;;;;4958323;28;89933;-38
2023/07/09 00:24:50;;;;;;;12.50;11.25;;;21.00;99.90;;;;;;4956895;28;89278;-35
2023/07/09 00:27:21;;;;;;;12.98;11.77;;;21.00;99.90;;;;;;4957864;28;88039;-35
2023/07/09 00:29:46;;;;;;;13.60;11.52;;;21.00;99.90;;;;;;4959148;28;89678;-36
2023/07/09 00:32:15;;;;;;;12.00;10.93;;;20.90;99.90;;;;;;4957682;28;89854;-34
2023/07/09 00:34:48;;;;;;;13.27;12.05;;;21.00;99.90;;;;;;4958393;28;89949;-37
2023/07/09 00:37:18;;;;;;;12.32;10.73;;;21.00;99.90;;;;;;4958410;28;88590;-34
2023/07/09 00:39:44;;;;;;;12.98;11.70;;;21.00;99.90;;;;;;4957345;28;89609;-41
2023/07/09 00:42:21;;;;;;;16.98;13.02;;;20.90;99.90;;;;;;4957768;28;90960;-38
2023/07/09 00:44:51;;;;;;;15.43;12.23;;;20.90;99.90;;;;;;4959213;28;90212;-36
2023/07/09 00:47:31;;;;;;;13.20;11.98;;;20.90;99.90;;;;;;4960599;28;89372;-34
2023/07/09 00:50:21;;;;;;;14.15;12.38;;;20.90;99.90;;;;;;4961719;28;88257;-40
2023/07/09 00:52:53;;;;;;;13.20;11.93;;;20.90;99.90;;;;;;4953469;28;93325;-34
2023/07/09 00:55:24;;;;;;;11.35;10.38;;;20.90;99.90;;;;;;4960828;28;90368;-35
2023/07/09 00:57:57;;;;;;;14.55;12.68;;;21.00;99.90;;;;;;4960797;28;88242;-40
2023/07/09 01:00:35;;;;;;;13.07;11.80;;;21.00;99.90;;;;;;4959858;28;88988;-34
2023/07/09 01:03:02;;;;;;;;;;;20.90;99.90;;;;;;4961768;28;90215;-33
2023/07/09 01:05:28;;;;;;;15.02;13.50;;;20.90;99.90;;;;;;4954407;28;88448;-34
2023/07/09 01:07:53;;;;;;;15.75;12.13;;;20.80;99.90;;;;;;4958132;28;90134;-40
2023/07/09 01:10:20;;;;;;;14.10;12.75;;;20.90;99.90;;;;;;4960769;28;88880;-40
2023/07/09 01:12:48;;;;;;;14.88;13.07;;;20.90;99.90;;;;;;4959624;28;92012;-35
2023/07/09 01:15:15;;;;;;;12.02;10.82;;;20.90;99.90;;;;;;4961024;28;89133;-33
2023/07/09 01:17:44;;;;;;;12.73;11.50;;;20.90;99.90;;;;;;4962328;28;88172;-34
2023/07/09 01:20:16;;;;;;;11.52;10.23;;;20.90;99.90;;;;;;4961746;28;89002;-33
2023/07/09 01:22:42;;;;;;;12.65;11.45;;;20.90;99.90;;;;;;4960982;28;90809;-38
2023/07/09 01:25:09;;;;;;;13.05;11.75;;;20.90;99.90;;;;;;4959531;28;88358;-39
2023/07/09 01:27:41;;;;;;;12.98;11.68;;;20.80;99.90;;;;;;4961216;28;88431;-34
2023/07/09 01:30:11;;;;;;;13.15;11.40;;;20.80;99.90;;;;;;4961024;28;87648;-36
2023/07/09 01:32:37;;;;;;;15.02;11.20;;;20.80;99.90;;;;;;4960923;28;91299;-35
2023/07/09 01:35:06;;;;;;;13.10;11.90;;;20.70;99.90;;;;;;4958740;28;90094;-36
2023/07/09 01:37:34;;;;;;;13.43;11.43;;;20.70;99.90;;;;;;4961618;28;88997;-33
2023/07/09 01:40:00;;;;;;;11.93;10.82;;;20.70;99.90;;;;;;4959999;28;88363;-35
2023/07/09 01:42:28;;;;;;;14.32;11.27;;;20.60;99.90;;;;;;4960578;28;90056;-38
2023/07/09 01:44:55;;;;;;;13.75;11.90;;;20.60;99.90;;;;;;4960274;28;88642;-34
2023/07/09 01:47:23;;;;;;;13.68;11.35;;;20.50;99.90;;;;;;4959686;28;89582;-39
2023/07/09 01:49:50;;;;;;;12.52;11.25;;;20.50;99.90;;;;;;4960987;28;88385;-36
2023/07/09 01:52:18;;;;;;;12.77;11.68;;;20.60;99.90;;;;;;4960523;28;90228;-36
2023/07/09 01:54:49;;;;;;;13.18;11.85;;;20.60;99.90;;;;;;4959950;28;90418;-37
2023/07/09 01:57:22;;;;;;;16.63;12.25;;;20.50;99.90;;;;;;4960605;28;89903;-37
2023/07/09 01:59:54;;;;;;;13.85;12.45;;;20.50;99.90;;;;;;4956323;28;89608;-40
2023/07/09 02:02:21;;;;;;;12.15;11.02;;;20.50;99.90;;;;;;4959861;28;90252;-36
2023/07/09 02:04:52;;;;;;;12.95;11.73;;;20.40;99.90;;;;;;4961162;28;90453;-39
2023/07/09 02:07:19;;;;;;;13.98;12.18;;;20.40;99.90;;;;;;4960559;28;89268;-38
2023/07/09 02:09:45;;;;;;;13.23;11.88;;;20.40;99.90;;;;;;4959498;28;88012;-38
2023/07/09 02:12:12;;;;;;;13.30;12.20;;;20.40;99.90;;;;;;4959725;28;90586;-36
2023/07/09 02:14:38;;;;;;;13.52;11.73;;;20.40;99.90;;;;;;4960141;28;89608;-34
2023/07/09 02:17:04;;;;;;;15.35;12.02;;;20.40;99.90;;;;;;4960810;28;88587;-37
2023/07/09 02:19:30;;;;;;;14.48;13.00;;;20.40;99.90;;;;;;4959902;28;87740;-36
2023/07/09 02:21:56;;;;;;;13.10;11.80;;;20.40;99.90;;;;;;4960921;28;90178;-34
2023/07/09 02:24:24;;;;;;;13.35;12.05;;;20.40;99.90;;;;;;4959856;28;89969;-35
2023/07/09 02:26:55;;;;;;;13.93;12.48;;;20.40;99.90;;;;;;4960163;28;89392;-36
2023/07/09 02:29:21;;;;;;;13.80;12.13;;;20.40;99.90;;;;;;4960734;28;90190;-34
2023/07/09 02:31:49;;;;;;;12.40;11.32;;;20.40;99.90;;;;;;4958603;28;90650;-35
2023/07/09 02:34:15;;;;;;;13.57;12.30;;;20.40;99.90;;;;;;4959568;28;90228;-40
2023/07/09 02:36:42;;;;;;;12.63;11.52;;;20.40;99.90;;;;;;4959778;28;88905;-33
2023/07/09 02:39:13;;;;;;;13.90;12.57;;;20.40;99.90;;;;;;4958003;28;89871;-35
2023/07/09 02:41:39;;;;;;;13.45;12.15;;;20.40;99.90;;;;;;4958443;28;89165;-37
2023/07/09 02:44:06;;;;;;;14.43;12.25;;;20.40;99.90;;;;;;4959733;28;90397;-37
2023/07/09 02:46:32;;;;;;;14.45;13.07;;;20.40;99.90;;;;;;4941648;28;88035;-34
2023/07/09 02:48:58;;;;;;;13.50;12.20;;;20.30;99.90;;;;;;4959968;28;89558;-32
2023/07/09 02:51:26;;;;;;;14.55;12.27;;;20.30;99.90;;;;;;4959194;28;90694;-43
2023/07/09 02:53:56;;;;;;;12.43;11.30;;;20.40;99.90;;;;;;4959671;28;89585;-36
2023/07/09 02:56:21;;;;;;;13.30;11.95;;;20.30;99.90;;;;;;4959735;28;89292;-37
2023/07/09 02:58:47;;;;;;;13.65;12.20;;;20.30;99.90;;;;;;4958285;28;88200;-37
2023/07/09 03:01:13;;;;;;;13.93;12.48;;;20.30;99.90;;;;;;4958281;28;90875;-35
2023/07/09 03:03:39;;;;;;;13.00;11.80;;;20.30;99.90;;;;;;4959883;28;89519;-36
2023/07/09 03:06:05;;;;;;;13.05;11.75;;;20.30;99.90;;;;;;4958924;28;88399;-34
2023/07/09 03:08:31;;;;;;;12.20;10.95;;;20.40;99.90;;;;;;4959716;28;89966;-34
2023/07/09 03:10:57;;;;;;;12.45;11.35;;;20.30;99.90;;;;;;4959375;28;90343;-33
2023/07/09 03:13:23;;;;;;;14.10;12.25;;;20.40;99.90;;;;;;4959155;28;89656;-41
2023/07/09 03:15:57;;;;;;;12.25;11.10;;;20.40;99.90;;;;;;4959132;28;89934;-33
2023/07/09 03:18:23;;;;;;;12.10;11.10;;;20.40;99.90;;;;;;4959815;28;88551;-36
2023/07/09 03:20:48;;;;;;;14.88;11.55;;;20.40;99.90;;;;;;4956021;28;90183;-37
2023/07/09 03:23:14;;;;;;;13.32;12.05;;;20.40;99.90;;;;;;4948563;28;89625;-37
2023/07/09 03:25:44;;;;;;;15.27;12.57;;;20.40;99.90;;;;;;4959335;28;87699;-34
2023/07/09 03:28:13;;;;;;;12.75;11.55;;;20.40;99.90;;;;;;4959931;28;89187;-33
2023/07/09 03:30:47;;;;;;;12.60;11.43;;;20.40;99.90;;;;;;4959382;28;89881;-34
2023/07/09 03:33:14;;;;;;;14.73;12.77;;;20.40;99.90;;;;;;4958966;28;90216;-40
2023/07/09 03:35:40;;;;;;;12.60;11.30;;;20.40;99.90;;;;;;4959371;28;87670;-41
2023/07/09 03:38:07;;;;;;;18.40;12.57;;;20.40;99.90;;;;;;4959803;28;90314;-35
2023/07/09 03:40:33;;;;;;;16.57;12.67;;;20.40;99.90;;;;;;4958945;28;90286;-33
2023/07/09 03:42:59;;;;;;;13.88;12.65;;;20.40;99.90;;;;;;4957499;28;91063;-40
2023/07/09 03:45:24;;;;;;;12.98;11.35;;;20.40;99.90;;;;;;4959849;28;89195;-34
2023/07/09 03:47:50;;;;;;;12.00;10.80;;;20.40;99.90;;;;;;4958831;28;89304;-37
2023/07/09 03:50:16;;;;;;;13.25;10.77;;;20.40;99.90;;;;;;4959468;28;89934;-33
2023/07/09 03:52:42;;;;;;;12.90;11.70;;;20.40;99.90;;;;;;4958821;28;90416;-35
2023/07/09 03:55:08;;;;;;;12.80;11.60;;;20.40;99.90;;;;;;4959137;28;90090;-41
2023/07/09 03:57:34;;;;;;;12.80;11.32;;;20.40;99.90;;;;;;4960227;28;88775;-33
2023/07/09 04:00:01;;;;;;;14.75;13.15;;;20.40;99.90;;;;;;4957939;28;89266;-33
2023/07/09 04:02:26;;;;;;;13.27;11.98;;;20.40;99.90;;;;;;4958717;28;90196;-33
2023/07/09 04:04:52;;;;;;;13.35;12.15;;;20.40;99.90;;;;;;4957032;28;88536;-34
2023/07/09 04:07:19;;;;;;;14.00;12.82;;;20.40;99.90;;;;;;4958645;28;89381;-33
2023/07/09 04:09:45;;;;;;;12.13;11.02;;;20.40;99.90;;;;;;4958763;28;89790;-35
2023/07/09 04:12:10;;;;;;;14.60;12.00;;;20.40;99.90;;;;;;4958575;28;88775;-36
2023/07/09 04:14:36;;;;;;;14.27;11.77;;;20.30;99.90;;;;;;4959186;28;88884;-32
2023/07/09 04:17:02;;;;;;;16.33;12.50;;;20.30;99.90;;;;;;4958922;28;90018;-34
2023/07/09 04:19:28;;;;;;;14.48;13.07;;;20.40;99.90;;;;;;4960157;28;90459;-40
2023/07/09 04:21:54;;;;;;;14.45;12.95;;;20.40;99.90;;;;;;4962633;28;89772;-38
2023/07/09 04:24:20;;;;;;;13.65;12.27;;;20.40;99.90;;;;;;4961371;28;88340;-36
2023/07/09 04:26:46;;;;;;;14.75;10.95;;;20.50;99.90;;;;;;4962994;28;89912;-43
2023/07/09 04:29:13;;;;;;;13.20;11.95;;;20.50;99.90;;;;;;4961883;28;89823;-33
2023/07/09 04:31:40;;;;;;;13.30;12.00;;;20.50;99.90;;;;;;4962092;28;89370;-33
2023/07/09 04:34:06;;;;;;;14.77;12.10;;;20.60;99.90;;;;;;4960370;28;89343;-37
2023/07/09 04:36:32;;;;;;;13.27;12.13;;;20.60;99.90;;;;;;4962762;28;89928;-34
2023/07/09 04:38:58;;;;;;;13.07;11.77;;;20.60;99.90;;;;;;4962436;28;90531;-32
2023/07/09 04:41:24;;;;;;;13.75;12.35;;;20.70;99.90;;;;;;4961526;28;89692;-38
2023/07/09 04:43:50;;;;;;;14.20;12.25;;;20.80;99.90;;;;;;4961816;28;89338;-35
2023/07/09 04:46:15;;;;;;;13.07;11.27;;;20.90;99.90;;;;;;4962294;28;89899;-33
2023/07/09 04:48:41;;;;;;;13.45;12.15;;;21.10;99.90;;;;;;4962408;28;89909;-33
2023/07/09 04:51:07;;;;;;;17.52;12.43;;;21.10;99.90;;;;;;4960595;28;90447;-38
2023/07/09 04:53:32;;;;;;;13.85;12.57;;;21.30;99.90;;;;;;4962198;28;87934;-35
2023/07/09 04:55:58;;;;;;;13.65;12.27;;;21.40;99.90;;;;;;4962079;28;89582;-35
2023/07/09 04:58:24;;;;;;;14.00;12.70;;;21.50;99.90;;;;;;4961651;28;90539;-42
2023/07/09 05:00:50;;;;;;;21.20;12.43;;;21.50;99.90;;;;;;4961699;28;89642;-37
2023/07/09 05:03:18;;;;;;;13.65;12.45;;;21.60;99.90;;;;;;4960605;28;89673;-32
2023/07/09 05:05:47;;;;;;;15.10;12.27;;;21.70;99.90;;;;;;4961926;28;88772;-41
2023/07/09 05:08:13;;;;;;;14.48;13.02;;;21.80;99.90;;;;;;4961401;28;90985;-34
2023/07/09 05:10:43;;;;;;;12.30;11.20;;;21.90;99.90;;;;;;4961667;28;89386;-33
2023/07/09 05:13:10;;;;;;;13.10;11.82;;;22.00;99.90;;;;;;4960999;28;88010;-32
2023/07/09 05:15:39;;;;;;;15.80;12.35;;;22.20;99.90;;;;;;4961127;28;88597;-34
2023/07/09 05:18:05;;;;;;;11.85;10.75;;;22.40;99.90;;;;;;4960485;28;90153;-33
2023/07/09 05:20:30;;;;;;;11.38;10.38;;;22.60;99.90;;;;;;4961265;28;88793;-39
2023/07/09 05:22:56;;;;;;;11.70;10.63;;;22.80;99.90;;;;;;4961173;28;88824;-36
2023/07/09 05:25:22;;;;;;;10.90;9.98;;;23.00;99.90;;;;;;4947956;28;88898;-38
2023/07/09 05:27:47;;;;;;;11.30;10.18;;;23.20;99.90;;;;;;4960790;28;90390;-34
2023/07/09 05:30:13;;;;;;;12.45;11.25;;;23.40;99.90;;;;;;4957664;28;90896;-35
2023/07/09 05:32:38;;;;;;;12.05;10.95;;;23.60;99.90;;;;;;4949331;28;89330;-40
2023/07/09 05:35:05;;;;;;;11.45;10.35;;;23.80;99.90;;;;;;4960552;28;87966;-32
2023/07/09 05:37:30;;;;;;;11.88;10.77;;;23.90;99.90;;;;;;4961782;28;90625;-35
2023/07/09 05:39:56;;;;;;;14.88;13.38;;;23.80;99.90;;;;;;4961281;28;89637;-33
2023/07/09 05:42:22;;;;;;;12.35;11.25;;;23.80;99.90;;;;;;4960511;28;88915;-34
2023/07/09 05:44:47;;;;;;;14.68;13.18;;;23.50;99.90;;;;;;4960935;28;88058;-33
2023/07/09 05:47:13;;;;;;;17.10;13.90;;;23.50;99.90;;;;;;4960346;28;90646;-33
2023/07/09 05:49:39;;;;;;;13.30;12.07;;;23.50;99.90;;;;;;4959409;28;89723;-38
2023/07/09 05:52:05;;;;;;;13.75;12.50;;;23.40;99.90;;;;;;4960440;28;89218;-38
2023/07/09 05:54:31;;;;;;;15.07;13.25;;;23.40;99.90;;;;;;4960834;28;88764;-34
2023/07/09 05:56:56;;;;;;;13.13;11.93;;;23.40;99.90;;;;;;4947938;28;90810;-34
2023/07/09 05:59:22;;;;;;;15.90;14.32;;;23.30;99.90;;;;;;4960201;28;89850;-34
2023/07/09 06:01:48;;;;;;;15.27;13.95;;;23.30;99.90;;;;;;4960454;28;87909;-34
2023/07/09 06:04:13;;;;;;;14.15;12.75;;;23.20;99.90;;;;;;4959799;28;90149;-39
2023/07/09 06:06:41;;;;;;;13.65;12.40;;;23.40;99.90;;;;;;4941131;28;90324;-40
2023/07/09 06:09:10;;;;;;;14.75;12.93;;;23.50;99.90;;;;;;4957634;28;88293;-39
2023/07/09 06:11:36;;;;;;;15.85;14.38;;;23.60;99.90;;;;;;4948020;28;89417;-33
2023/07/09 06:14:02;;;;;;;14.10;12.80;;;23.70;99.90;;;;;;4959897;28;89100;-33
2023/07/09 06:16:28;;;;;;;14.20;12.75;;;23.60;99.90;;;;;;4959065;28;90134;-37
2023/07/09 06:18:53;;;;;;;14.30;12.82;;;23.60;99.90;;;;;;4959703;28;92002;-35
2023/07/09 06:21:19;;;;;;;12.73;11.43;;;23.70;99.90;;;;;;4959648;28;88793;-34
2023/07/09 06:23:47;;;;;;;14.77;13.57;;;23.70;99.90;;;;;;4960283;28;88114;-34
2023/07/09 06:26:13;;;;;;;12.52;11.32;;;23.80;99.90;;;;;;4960410;28;90506;-35
2023/07/09 06:28:38;;;;;;;12.85;11.43;;;24.00;99.90;;;;;;4960428;28;89709;-35
2023/07/09 06:31:04;;;;;;;12.80;11.55;;;24.10;99.90;;;;;;4959773;28;88908;-33
2023/07/09 06:33:30;;;;;;;16.38;11.95;;;24.30;99.90;;;;;;4959170;28;87565;-35
2023/07/09 06:36:00;;;;;;;12.07;10.98;;;24.50;99.90;;;;;;4959807;28;91095;-34
2023/07/09 06:38:27;;;;;;;12.38;11.10;;;24.70;99.90;;;;;;4958400;28;90673;-35
2023/07/09 06:40:53;;;;;;;12.18;10.55;;;24.90;99.90;;;;;;4960188;28;89791;-36
2023/07/09 06:43:19;;;;;;;13.30;11.95;;;25.10;99.90;;;;;;4957850;28;88627;-35
2023/07/09 06:46:00;;;;;;;12.27;11.00;;;25.30;99.90;;;;;;4960282;28;90647;-35
2023/07/09 06:48:27;;;;;;;12.77;11.00;;;25.40;99.90;;;;;;4957627;28;91598;-37
2023/07/09 06:50:55;;;;;;;11.52;9.80;;;25.70;99.90;;;;;;4960434;28;89525;-36
2023/07/09 06:53:21;;;;;;;12.30;11.10;;;25.80;99.90;;;;;;4960642;28;89765;-38
2023/07/09 06:55:48;;;;;;;12.40;11.18;;;26.10;99.90;;;;;;4959159;28;90261;-36
2023/07/09 06:58:16;;;;;;;11.40;10.30;;;26.20;99.90;;;;;;4957258;28;89844;-40
2023/07/09 07:00:42;;;;;;;14.23;11.10;;;26.40;99.90;;;;;;4959610;28;89556;-39
2023/07/09 07:03:09;;;;;;;11.30;10.10;;;26.60;99.60;;;;;;4958518;28;87673;-37
2023/07/09 07:05:35;;;;;;;12.27;9.70;;;26.80;99.00;;;;;;4958033;28;90367;-39
2023/07/09 07:08:02;;;;;;;19.52;10.57;;;27.10;98.50;;;;;;4960739;28;90244;-36
2023/07/09 07:10:29;;;;;;;10.87;9.80;;;27.10;97.20;;;;;;4959151;28;89603;-35
2023/07/09 07:12:55;;;;;;;11.00;9.87;;;27.10;97.20;;;;;;4959669;28;88529;-35
2023/07/09 07:15:22;;;;;;;10.55;9.48;;;27.20;96.70;;;;;;4955646;28;90724;-38
2023/07/09 07:17:48;;;;;;;11.18;10.02;;;27.30;96.50;;;;;;4956661;28;90179;-35
2023/07/09 07:20:14;;;;;;;11.07;10.00;;;27.50;97.30;;;;;;4955794;28;88705;-36
2023/07/09 07:22:40;;;;;;;11.98;10.85;;;27.70;96.50;;;;;;4955751;28;87665;-36
2023/07/09 07:25:07;;;;;;;9.60;8.73;;;27.90;96.80;;;;;;4956337;28;90047;-39
2023/07/09 07:27:34;;;;;;;11.30;10.27;;;28.10;97.00;;;;;;4956119;28;90133;-35
2023/07/09 07:30:00;;;;;;;11.65;10.20;;;28.20;94.50;;;;;;4957180;28;90023;-33
2023/07/09 07:32:26;;;;;;;11.88;10.55;;;28.40;94.30;;;;;;4955369;28;88499;-35
2023/07/09 07:34:54;;;;;;;10.65;9.65;;;28.30;93.00;;;;;;4956233;28;90754;-36
2023/07/09 07:37:20;;;;;;;12.82;9.82;;;28.70;93.60;;;;;;4955842;28;90203;-35
2023/07/09 07:39:47;;;;;;;10.80;9.70;;;28.90;93.30;;;;;;4957009;28;88906;-35
2023/07/09 07:42:12;;;;;;;14.07;9.88;;;28.80;93.00;;;;;;4956368;28;89774;-37
2023/07/09 07:44:38;;;;;;;13.52;9.40;;;29.20;92.20;;;;;;4956911;28;90121;-34
2023/07/09 07:47:05;;;;;;;19.38;9.82;;;29.20;91.50;;;;;;4956686;28;90371;-34
2023/07/09 07:49:31;;;;;;;12.23;9.70;;;29.50;91.10;;;;;;4957013;28;89634;-37
2023/07/09 07:51:56;;;;;;;13.85;9.93;;;29.50;90.90;;;;;;4957337;28;89642;-34
2023/07/09 07:54:22;;;;;;;11.63;8.90;;;29.80;90.10;;;;;;4956374;28;89515;-35
2023/07/09 07:56:48;;;;;;;10.75;8.38;;;29.80;88.20;;;;;;4956810;28;89834;-35
2023/07/09 07:59:39;;;;;;;10.80;9.70;;;29.70;86.80;;;;;;4949060;22;88785;31
2023/07/09 08:02:10;;;;;;;9.98;8.98;;;30.10;86.70;;;;;;4916471;28;89023;-34
2023/07/09 08:04:37;;;;;;;10.88;9.80;;;30.00;85.90;;;;;;4917697;28;89674;-36
2023/07/09 08:07:02;;;;;;;9.57;8.57;;;30.30;85.40;;;;;;4918306;28;90640;-35
2023/07/09 08:09:29;;;;;;;11.77;9.02;;;30.40;84.10;;;;;;4918064;28;89035;-37
2023/07/09 08:11:54;;;;;;;10.63;8.63;;;30.40;83.20;;;;;;4918864;28;89512;-33
2023/07/09 08:14:20;;;;;;;13.05;9.05;;;30.60;83.30;;;;;;4917303;28;91280;-36
2023/07/09 08:16:46;;;;;;;10.30;9.20;;;30.80;82.50;;;;;;4918066;28;89546;-35
2023/07/09 08:19:12;;;;;;;9.93;8.73;;;31.10;82.30;;;;;;4918120;28;88421;-34
2023/07/09 08:21:37;;;;;;;9.20;8.30;;;31.10;82.60;;;;;;4915623;28;90435;-34
2023/07/09 08:24:04;;;;;;;9.88;8.98;;;31.30;82.90;;;;;;4918008;28;91068;-35
2023/07/09 08:26:31;;;;;;;10.77;9.57;;;31.50;81.90;;;;;;4917634;28;89317;-34
2023/07/09 08:28:57;;;;;;;9.77;8.88;;;31.40;81.50;;;;;;4932879;28;89090;-37
2023/07/09 08:31:22;;;;;;;8.57;7.78;;;31.30;80.90;;;;;;4916863;28;88479;-34
2023/07/09 08:33:48;;;;;;;9.55;8.65;;;31.60;80.10;;;;;;4917105;28;91076;-32
2023/07/09 08:36:14;;;;;;;9.80;8.80;;;31.80;78.80;;;;;;4918036;28;89296;-34
2023/07/09 08:38:39;;;;;;;11.25;9.35;;;31.80;78.80;;;;;;4916179;28;88342;-34
2023/07/09 08:41:47;;;;;;;9.63;8.70;;;31.90;78.40;;;;;;4918829;28;91022;-35
2023/07/09 08:44:46;;;;;;;13.50;8.45;;;32.20;78.40;;;;;;4908851;28;90632;-37
2023/07/09 08:47:39;;;;;;;9.05;8.20;;;32.40;76.70;;;;;;4906545;28;89837;-37
2023/07/09 08:50:12;;;;;;;9.52;8.63;;;32.00;77.40;;;;;;4918244;28;87896;-35
2023/07/09 08:52:43;;;;;;;8.52;7.72;;;32.00;76.00;;;;;;4917679;28;88131;-34
2023/07/09 08:55:15;;;;;;;8.68;8.00;;;32.10;75.60;;;;;;4917852;28;89737;-33
2023/07/09 08:57:45;;;;;;;9.52;8.52;;;32.20;75.50;;;;;;4918348;28;92222;-35
2023/07/09 09:00:33;;;;;;;10.10;8.85;;;32.50;77.00;;;;;;4917404;28;89660;-35
2023/07/09 09:03:08;;;;;;;8.30;7.50;;;32.50;74.10;;;;;;4916730;28;89969;-33
2023/07/09 09:05:41;;;;;;;13.23;9.45;;;32.40;75.20;;;;;;4918272;28;89106;-35
2023/07/09 09:08:28;;;;;;;16.33;10.32;;;32.30;76.70;;;;;;4920093;28;89114;-34
2023/07/09 09:11:07;;;;;;;10.32;9.43;;;32.50;76.80;;;;;;4920331;28;89774;-32
2023/07/09 09:13:35;;;;;;;9.45;8.55;;;32.50;78.30;;;;;;4920221;28;88334;-34
2023/07/09 09:16:09;;;;;;;9.48;8.50;;;32.60;78.40;;;;;;4919720;28;90626;-36
2023/07/09 09:18:42;;;;;;;11.10;10.05;;;32.60;78.00;;;;;;4920727;28;88970;-35
2023/07/09 09:21:13;;;;;;;9.95;8.85;;;32.80;78.50;;;;;;4919886;28;89969;-36
2023/07/09 09:23:49;;;;;;;10.90;9.80;;;33.00;77.20;;;;;;4920915;28;89221;-37
2023/07/09 09:26:24;;;;;;;10.93;9.83;;;32.90;77.80;;;;;;4909956;28;90840;-33
2023/07/09 09:28:51;;;;;;;10.27;9.30;;;32.60;79.70;;;;;;4920284;28;90489;-33
2023/07/09 09:31:17;;;;;;;9.88;9.07;;;32.50;78.50;;;;;;4921025;28;88070;-36
2023/07/09 09:33:45;;;;;;;10.52;9.50;;;32.60;78.40;;;;;;4920866;28;90257;-42
2023/07/09 09:36:20;;;;;;;10.32;9.27;;;32.60;78.70;;;;;;4918985;28;90404;-36
2023/07/09 09:38:46;;;;;;;14.35;9.85;;;32.80;78.60;;;;;;4920090;28;90304;-36
2023/07/09 09:41:17;;;;;;;10.55;9.55;;;32.80;78.50;;;;;;4921326;28;88151;-37
2023/07/09 09:43:44;;;;;;;11.05;10.13;;;33.00;78.30;;;;;;4920330;28;87841;-38
2023/07/09 09:46:21;;;;;;;10.93;9.88;;;33.10;76.70;;;;;;4919410;28;90565;-35
2023/07/09 09:48:49;;;;;;;10.70;9.60;;;32.80;76.80;;;;;;4919169;28;89387;-37
2023/07/09 09:51:16;;;;;;;10.57;9.50;;;32.90;77.80;;;;;;4920510;28;87576;-34
2023/07/09 09:53:44;;;;;;;;;;;33.00;76.30;;;;;;4909944;28;90290;-38
2023/07/09 09:56:18;;;;;;;12.38;9.77;;;33.00;76.00;;;;;;4920386;28;89785;-37
2023/07/09 09:58:44;;;;;;;11.45;9.57;;;32.50;76.40;;;;;;4907876;28;89765;-39
2023/07/09 10:01:17;;;;;;;10.52;9.63;;;32.80;77.00;;;;;;4920686;28;88554;-37
2023/07/09 10:03:44;;;;;;;13.98;9.25;;;32.90;75.90;;;;;;4919740;28;88505;-36
2023/07/09 10:06:40;;;;;;;11.32;10.38;;;33.00;76.20;;;;;;4919119;28;90375;-37
2023/07/09 10:09:27;;;;;;;10.30;9.05;;;32.60;75.30;;;;;;4913023;28;89632;-37
2023/07/09 10:12:14;;;;;;;9.43;8.40;;;32.90;76.10;;;;;;4920522;28;89620;-37
2023/07/09 10:15:03;;;;;;;10.55;8.15;;;32.80;75.40;;;;;;4919446;28;87747;-39
2023/07/09 10:17:46;;;;;;;11.48;8.82;;;32.80;76.10;;;;;;4919520;28;91956;-35
2023/07/09 10:20:31;;;;;;;9.55;8.65;;;32.80;75.50;;;;;;4919705;28;90067;-36
2023/07/09 10:23:25;;;;;;;9.75;8.85;;;32.80;75.90;;;;;;4920869;28;88721;-35
2023/07/09 10:26:28;;;;;;;11.55;9.23;;;32.80;76.00;;;;;;4917075;28;89166;-35
2023/07/09 10:29:29;;;;;;;14.90;9.77;;;32.40;75.60;;;;;;4917252;28;89948;-37
2023/07/09 10:32:28;;;;;;;9.65;8.70;;;32.70;76.40;;;;;;4914071;28;89060;-39
2023/07/09 10:34:58;;;;;;;7.72;7.05;;;32.90;76.30;;;;;;4919560;28;88008;-37
2023/07/09 10:37:53;;;;;;;8.23;7.43;;;32.60;75.20;;;;;;4919716;28;89948;-34
2023/07/09 10:40:30;;;;;;;9.05;8.18;;;32.90;74.60;;;;;;4918282;28;90571;-34
2023/07/09 10:43:00;;;;;;;9.68;8.70;;;32.90;73.90;;;;;;4920055;28;89008;-35
2023/07/09 10:45:34;;;;;;;7.85;5.88;;;32.80;73.00;;;;;;4919559;28;88921;-37
2023/07/09 10:48:06;;;;;;;9.48;6.90;;;32.80;72.50;;;;;;4919299;28;88767;-36
2023/07/09 10:50:40;;;;;;;9.27;6.10;;;32.80;71.00;;;;;;4919074;28;90801;-38
2023/07/09 10:53:22;;;;;;;6.75;6.03;;;32.60;71.60;;;;;;4918500;28;90137;-40
2023/07/09 10:55:55;;;;;;;6.38;5.80;;;32.60;72.70;;;;;;4919362;28;90078;-37
2023/07/09 10:58:31;;;;;;;8.35;7.20;;;32.50;71.90;;;;;;4919393;28;89659;-35
2023/07/09 11:00:57;;;;;;;11.52;7.57;;;32.80;72.40;;;;;;4918592;28;89275;-36
2023/07/09 11:03:44;;;;;;;10.40;7.10;;;32.40;71.00;;;;;;4917435;28;91114;-37
2023/07/09 11:06:18;;;;;;;14.25;7.75;;;32.60;71.70;;;;;;4919417;28;89356;-37
2023/07/09 11:08:47;;;;;;;8.18;7.38;;;32.70;72.50;;;;;;4919229;28;89004;-35
2023/07/09 11:11:35;;;;;;;8.80;7.97;;;32.70;71.60;;;;;;4933818;28;90650;-37
2023/07/09 11:14:11;;;;;;;8.30;7.50;;;32.60;70.60;;;;;;4918308;28;89708;-37
2023/07/09 11:16:41;;;;;;;8.65;7.88;;;32.60;70.70;;;;;;4918828;28;88184;-39
2023/07/09 11:19:17;;;;;;;7.90;6.82;;;32.60;71.80;;;;;;4917015;28;90517;-38
2023/07/09 11:22:02;;;;;;;8.32;7.57;;;32.60;72.10;;;;;;4934458;28;92537;-38
2023/07/09 11:24:32;;;;;;;19.80;7.40;;;32.60;70.90;;;;;;4917701;28;89708;-36
2023/07/09 11:27:00;;;;;;;8.38;7.22;;;32.50;72.10;;;;;;4918724;28;89375;-34
2023/07/09 11:29:25;;;;;;;10.98;8.02;;;32.50;71.80;;;;;;4918091;28;89329;-40
2023/07/09 11:31:51;;;;;;;16.20;7.70;;;32.50;71.50;;;;;;4919289;28;89838;-38
2023/07/09 11:34:19;;;;;;;7.97;7.28;;;32.60;71.40;;;;;;4918403;28;90255;-35
2023/07/09 11:36:58;;;;;;;8.70;7.05;;;32.80;71.60;;;;;;4922533;28;90532;-39
2023/07/09 11:39:38;;;;;;;11.70;7.68;;;32.80;70.50;;;;;;4918556;28;88658;-38
2023/07/09 11:42:22;;;;;;;15.90;7.40;;;32.70;71.90;;;;;;4918207;28;89649;-35
2023/07/09 11:44:53;;;;;;;7.88;7.18;;;32.80;70.80;;;;;;4917703;28;89445;-35
2023/07/09 11:47:23;;;;;;;8.23;7.53;;;32.60;70.70;;;;;;4918892;28;87939;-37
2023/07/09 11:50:00;;;;;;;7.53;5.97;;;32.60;69.80;;;;;;4918413;28;89453;-44
2023/07/09 11:52:33;;;;;;;7.20;6.53;;;32.50;70.30;;;;;;4918468;28;90010;-36
2023/07/09 11:55:23;;;;;;;7.55;6.70;;;32.60;70.80;;;;;;4917922;28;89628;-41
2023/07/09 11:58:00;;;;;;;10.57;6.82;;;32.50;70.20;;;;;;4907757;28;88733;-40
2023/07/09 12:00:30;;;;;;;8.20;7.10;;;32.50;70.10;;;;;;4906234;28;88929;-38
2023/07/09 12:02:57;;;;;;;8.07;7.38;;;32.50;71.20;;;;;;4917481;28;89070;-37
2023/07/09 12:05:28;;;;;;;8.52;6.63;;;32.40;69.90;;;;;;4918030;28;90537;-35
2023/07/09 12:07:56;;;;;;;8.73;6.95;;;32.40;70.30;;;;;;4918127;28;89977;-42
2023/07/09 12:10:24;;;;;;;8.73;6.78;;;32.50;69.20;;;;;;4918227;28;89600;-34
2023/07/09 12:12:55;;;;;;;7.88;6.10;;;32.60;70.60;;;;;;4918334;28;90162;-37
2023/07/09 12:15:27;;;;;;;6.93;6.32;;;32.50;67.50;;;;;;4917807;28;90285;-37
2023/07/09 12:18:02;;;;;;;5.88;5.25;;;32.50;68.10;;;;;;4918171;28;88176;-36
2023/07/09 12:20:35;;;;;;;9.18;6.13;;;32.70;67.60;;;;;;4918303;28;88723;-36
2023/07/09 12:23:15;;;;;;;13.65;7.40;;;32.60;68.90;;;;;;4918194;28;88568;-41
2023/07/09 12:25:50;;;;;;;8.30;6.93;;;32.60;67.40;;;;;;4917462;28;90204;-36
2023/07/09 12:28:17;;;;;;;6.80;6.10;;;32.60;69.30;;;;;;4918822;28;89680;-39
2023/07/09 12:30:51;;;;;;;6.78;6.10;;;32.70;69.60;;;;;;4917527;28;89200;-39
2023/07/09 12:33:19;;;;;;;6.78;6.28;;;32.80;70.10;;;;;;4918613;28;90312;-36
2023/07/09 12:35:46;;;;;;;7.85;6.80;;;32.80;69.70;;;;;;4917780;28;89591;-33
2023/07/09 12:38:17;;;;;;;;;;;32.90;67.10;;;;;;4901109;28;88513;-41
2023/07/09 12:40:43;;;;;;;8.10;6.32;;;32.80;68.00;;;;;;4921551;28;89517;-36
2023/07/09 12:43:11;;;;;;;10.13;5.75;;;32.80;67.50;;;;;;4935550;28;89248;-35
2023/07/09 12:45:37;;;;;;;7.22;5.50;;;32.80;67.30;;;;;;4910212;28;90397;-43
2023/07/09 12:48:03;;;;;;;8.60;5.80;;;32.80;68.20;;;;;;4921964;28;88513;-32